Terminal Aerodrome Forecast
Issued by NWS Binghamton, NY

Home | Current Version | Previous Version | Text Only | Print | Product List | Glossary On
Versions: 1 2 3 4 5 6 7 8 9 10 11 12 13 14 15 16 17 18
539
FTUS41 KBGM 081741
TAFAVP
TAF
KAVP 081741Z 0818/0918 12008G20KT P6SM FEW025 BKN100
     FM090000 09005KT P6SM OVC050
      TEMPO 0906/0910 3SM -SHSN OVC025=

USA.gov is the U.S. government's official web portal to all federal, state and local government web resources and services.